Time;durP1;ratioP1;P1;durP2;ratioP2;P2;SDS_P1;SDS_P2;PMS_P1;PMS_P2;Temp;Humidity;BMP_temperature;BMP_pressure;BME280_temperature;BME280_humidity;BME280_pressure;Samples;Min_cycle;Max_cycle;Signal;HPM_P1;HPM_P2
2021/04/09 00:01:50;;;;;;;41.70;20.00;;;;;;;0.34;72.50;99971.05;1823159;78;21546;-73
2021/04/09 00:04:19;;;;;;;47.90;20.55;;;;;;;0.35;72.53;99972.72;1790733;80;21136;-74
2021/04/09 00:06:46;;;;;;;47.38;20.23;;;;;;;0.34;72.36;99974.32;1823129;78;21497;-73
2021/04/09 00:09:14;;;;;;;46.28;19.40;;;;;;;0.31;72.23;99978.84;1790677;80;20890;-73
2021/04/09 00:11:43;;;;;;;44.63;21.30;;;;;;;0.29;72.28;99981.00;1823046;78;21479;-73
2021/04/09 00:14:14;;;;;;;48.60;22.95;;;;;;;0.25;72.33;99979.29;1790710;80;21466;-73
2021/04/09 00:16:42;;;;;;;42.17;20.70;;;;;;;0.21;72.30;99984.36;1823169;78;21476;-73
2021/04/09 00:19:14;;;;;;;38.90;18.92;;;;;;;0.18;72.26;99981.30;1790843;80;22087;-73
2021/04/09 00:21:43;;;;;;;41.85;18.77;;;;;;;0.16;72.73;99985.61;1823191;78;20931;-73
2021/04/09 00:24:12;;;;;;;43.08;20.60;;;;;;;0.18;73.01;99983.48;1795851;79;21462;-73
2021/04/09 00:26:40;;;;;;;40.15;19.25;;;;;;;0.20;73.15;99990.02;1831844;78;20979;-73
2021/04/09 00:29:07;;;;;;;38.23;17.95;;;;;;;0.21;73.11;99991.66;1799133;79;20968;-73
2021/04/09 00:31:35;;;;;;;36.08;16.55;;;;;;;0.21;73.16;99997.92;1831877;78;21413;-73
2021/04/09 00:34:04;;;;;;;35.20;16.73;;;;;;;0.21;73.15;99997.09;1799017;79;21057;-73
2021/04/09 00:36:36;;;;;;;33.60;16.32;;;;;;;0.21;73.14;100006.57;1799110;79;20920;-72
2021/04/09 00:39:06;;;;;;;29.45;15.15;;;;;;;0.20;73.24;100004.94;1831895;78;21483;-73
2021/04/09 00:41:36;;;;;;;25.70;14.70;;;;;;;0.21;73.48;100003.86;1799110;79;20945;-73
2021/04/09 00:44:06;;;;;;;33.05;16.17;;;;;;;0.23;73.60;100018.84;1804727;78;21783;-73
2021/04/09 00:46:34;;;;;;;30.80;15.95;;;;;;;0.27;73.72;100017.00;1799109;79;20918;-73
2021/04/09 00:49:03;;;;;;;30.90;15.15;;;;;;;0.31;73.71;100017.63;1831737;78;21487;-73
2021/04/09 00:51:32;;;;;;;25.52;13.78;;;;;;;0.37;73.61;100014.50;1792013;79;21077;-72
2021/04/09 00:54:01;;;;;;;31.97;15.40;;;;;;;0.40;73.59;100015.38;1831588;78;21029;-72
2021/04/09 00:56:30;;;;;;;26.68;14.65;;;;;;;0.41;73.46;100016.21;1803974;78;21369;-73
2021/04/09 00:58:58;;;;;;;26.73;14.58;;;;;;;0.42;73.41;100018.68;1831686;78;20979;-73
2021/04/09 01:01:26;;;;;;;27.87;14.50;;;;;;;0.43;73.24;100022.19;1804149;78;21188;-74
2021/04/09 01:03:54;;;;;;;26.27;15.60;;;;;;;0.40;73.11;100024.03;1831772;78;21038;-73
2021/04/09 01:06:24;;;;;;;27.67;14.13;;;;;;;0.37;73.20;100024.00;1831803;78;21049;-73
2021/04/09 01:08:51;;;;;;;23.85;14.73;;;;;;;0.34;73.30;100029.34;1831805;78;21116;-73
2021/04/09 01:11:19;;;;;;;30.32;15.63;;;;;;;0.35;73.29;100026.95;1831748;78;21121;-73
2021/04/09 01:13:47;;;;;;;29.65;16.75;;;;;;;0.33;73.41;100025.52;1831805;78;21074;-73
2021/04/09 01:16:42;;;;;;;33.35;16.10;;;;;;;0.32;73.54;100030.14;1831810;78;21156;-73
2021/04/09 01:19:42;;;;;;;43.52;17.57;;;;;;;0.33;73.10;100030.42;1889960;76;22733;-73
2021/04/09 01:22:15;;;;;;;37.45;18.02;;;;;;;0.23;72.93;100036.46;1860860;77;20945;-73
2021/04/09 01:25:22;;;;;;;79.62;27.52;;;;;;;0.15;72.97;100032.77;1860741;77;21556;-73
2021/04/09 01:28:23;;;;;;;75.87;28.85;;;;;;;0.08;73.09;100036.95;1860746;77;20928;-72
2021/04/09 01:31:40;;;;;;;84.42;32.03;;;;;;;-0.01;73.40;100034.30;1860863;77;21488;-70
2021/04/09 01:34:40;;;;;;;70.72;27.60;;;;;;;-0.08;73.68;100043.06;1860792;77;21020;-70
2021/04/09 01:37:27;;;;;;;49.83;19.87;;;;;;;-0.09;74.09;100043.63;1857359;77;20913;-73
2021/04/09 01:40:04;;;;;;;28.87;15.95;;;;;;;-0.10;74.33;100048.73;1860875;77;21265;-73
2021/04/09 01:42:35;;;;;;;24.80;15.55;;;;;;;-0.10;74.31;100047.37;1860751;77;20917;-73
2021/04/09 01:45:04;;;;;;;26.95;15.72;;;;;;;-0.09;74.62;100044.14;1828295;77;20992;-71
2021/04/09 01:47:58;;;;;;;38.60;19.40;;;;;;;-0.06;74.73;100047.20;1860597;77;21019;-69
2021/04/09 01:50:27;;;;;;;45.95;21.85;;;;;;;-0.05;74.61;100053.46;1860812;77;21090;-71
2021/04/09 01:53:14;;;;;;;46.60;22.80;;;;;;;-0.06;74.70;100057.22;1858526;77;20964;-72
2021/04/09 01:55:47;;;;;;;56.65;25.15;;;;;;;-0.04;74.86;100064.06;1860758;77;20968;-73
2021/04/09 01:58:36;;;;;;;55.08;24.50;;;;;;;-0.02;74.91;100068.69;1860770;77;21090;-73
2021/04/09 02:01:11;;;;;;;48.68;23.47;;;;;;;0.02;74.91;100073.67;1860842;77;21110;-74
2021/04/09 02:04:35;;;;;;;47.13;22.20;;;;;;;0.03;74.89;100076.66;1860795;77;21476;-73
2021/04/09 02:07:52;;;;;;;41.58;21.15;;;;;;;0.04;74.81;100076.94;1859602;77;20964;-73
2021/04/09 02:10:20;;;;;;;46.63;20.75;;;;;;;0.03;74.50;100090.21;1860838;77;20920;-72
2021/04/09 02:14:05;;;;;;;38.70;20.25;;;;;;;-0.01;74.65;100088.50;1842928;77;21123;-71
2021/04/09 02:16:44;;;;;;;37.15;20.17;;;;;;;-0.05;74.46;100090.84;1827184;78;21078;-71
2021/04/09 02:19:12;;;;;;;34.98;18.82;;;;;;;-0.10;74.37;100092.63;1826980;78;21134;-73
2021/04/09 02:22:22;;;;;;;31.60;17.67;;;;;;;-0.16;74.37;100091.67;1826816;78;21031;-70
2021/04/09 02:24:49;;;;;;;36.55;17.40;;;;;;;-0.25;74.56;100092.02;1826989;78;21126;-72
2021/04/09 02:27:18;;;;;;;31.90;17.67;;;;;;;-0.31;74.76;100087.55;1827059;78;21483;-73
2021/04/09 02:30:07;;;;;;;34.80;16.50;;;;;;;-0.34;74.67;100087.19;1826020;78;20928;-71
2021/04/09 02:32:35;;;;;;;28.25;16.57;;;;;;;-0.38;74.71;100090.88;1826445;78;21192;-73
2021/04/09 02:35:23;;;;;;;29.85;15.65;;;;;;;-0.41;74.90;100098.13;1826457;78;22401;-71
2021/04/09 02:38:01;;;;;;;28.65;15.63;;;;;;;-0.44;75.01;100097.21;1826442;78;21004;-73
2021/04/09 02:44:45;;;;;;;26.05;13.85;;;;;;;-0.54;75.54;100105.39;1825158;78;21106;-73
2021/04/09 02:47:21;;;;;;;22.22;13.72;;;;;;;-0.58;75.65;100106.89;1769306;78;21528;-73
2021/04/09 02:50:32;;;;;;;26.45;14.10;;;;;;;-0.60;75.76;100112.25;1792267;80;21378;-71
2021/04/09 02:53:11;;;;;;;23.50;14.03;;;;;;;-0.59;75.91;100116.60;1793194;80;21186;-72
2021/04/09 02:55:59;;;;;;;28.05;13.95;;;;;;;-0.57;76.04;100122.09;1770968;80;20948;-73
2021/04/09 02:59:11;;;;;;;26.40;14.90;;;;;;;-0.57;75.97;100123.45;1760865;81;21194;-72
2021/04/09 03:01:43;;;;;;;21.95;14.20;;;;;;;-0.59;76.02;100128.78;1761003;81;21153;-73
2021/04/09 03:04:11;;;;;;;27.00;14.40;;;;;;;-0.59;76.24;100132.33;1761133;81;21614;-73
2021/04/09 03:06:43;;;;;;;29.48;16.00;;;;;;;-0.57;76.45;100139.70;1760848;81;21173;-74
2021/04/09 03:09:10;;;;;;;23.85;13.65;;;;;;;-0.54;76.50;100139.75;1736292;81;21136;-73
2021/04/09 03:15:59;;;;;;;28.80;13.60;;;;;;;-0.52;76.62;100149.31;1760813;81;21519;-73
2021/04/09 03:18:29;;;;;;;24.23;14.90;;;;;;;-0.47;76.95;100154.03;1760863;81;21037;-72
2021/04/09 03:20:57;;;;;;;24.85;14.83;;;;;;;-0.41;77.36;100157.70;1760946;81;20968;-74
2021/04/09 03:23:24;;;;;;;26.17;14.43;;;;;;;-0.37;77.11;100156.17;1761100;81;21558;-73
2021/04/09 03:26:12;;;;;;;26.95;14.65;;;;;;;-0.33;77.16;100162.79;1760248;81;21697;-73
2021/04/09 03:28:42;;;;;;;24.98;14.07;;;;;;;-0.30;77.04;100164.20;1761471;80;21199;-73
2021/04/09 03:31:11;;;;;;;25.27;15.63;;;;;;;-0.28;77.21;100179.17;1793202;80;21296;-73
2021/04/09 03:34:01;;;;;;;26.15;14.90;;;;;;;-0.23;77.17;100177.64;1791966;80;21461;-73
2021/04/09 03:36:28;;;;;;;24.98;14.87;;;;;;;-0.19;77.17;100181.55;1793124;80;21606;-73
2021/04/09 03:39:29;;;;;;;22.25;14.20;;;;;;;-0.18;77.18;100185.90;1792804;80;20964;-72
2021/04/09 03:41:57;;;;;;;23.70;14.98;;;;;;;-0.13;77.34;100190.09;1793147;80;21516;-73
2021/04/09 03:48:54;;;;;;;23.32;14.55;;;;;;;-0.08;77.32;100195.64;1792933;80;21594;-75
2021/04/09 03:51:21;;;;;;;25.82;15.13;;;;;;;-0.03;77.50;100205.26;1793075;80;21134;-74
2021/04/09 03:53:49;;;;;;;23.73;15.15;;;;;;;-0.01;77.40;100203.15;1793161;80;21014;-75
2021/04/09 03:56:39;;;;;;;26.25;15.43;;;;;;;0.03;77.42;100208.10;1770009;80;21079;-75
2021/04/09 03:59:31;;;;;;;26.75;15.32;;;;;;;0.10;77.48;100205.56;1793113;80;22266;-72
2021/04/09 04:02:06;;;;;;;23.40;14.03;;;;;;;0.18;77.48;100209.00;1793124;80;20983;-74
2021/04/09 04:09:01;;;;;;;44.00;23.57;;;;;;;0.33;77.35;100224.81;1780512;80;21174;-73
2021/04/09 04:11:31;;;;;;;49.48;23.25;;;;;;;0.38;76.87;100232.23;1781452;80;21091;-70
2021/04/09 04:15:09;;;;;;;31.42;18.27;;;;;;;0.37;76.68;100232.79;1662106;86;21216;-73
2021/04/09 04:18:01;;;;;;;28.73;17.98;;;;;;;0.36;76.77;100236.55;1661506;86;21219;-74
2021/04/09 04:20:51;;;;;;;24.60;15.13;;;;;;;0.41;77.03;100240.73;1655087;86;21189;-73
2021/04/09 04:23:19;;;;;;;26.33;15.72;;;;;;;0.48;77.06;100248.76;1655112;86;21084;-73
2021/04/09 04:25:47;;;;;;;26.77;15.08;;;;;;;0.54;76.99;100249.72;1655179;86;21506;-71
2021/04/09 04:39:23;;;;;;;31.07;18.92;;;;;;;0.78;77.35;100260.05;1581944;89;21591;-72
2021/04/09 04:41:52;;;;;;;32.30;19.30;;;;;;;0.88;77.37;100264.88;1599005;89;21209;-73
2021/04/09 04:44:20;;;;;;;35.78;18.75;;;;;;;0.92;77.39;100272.83;1606028;86;21397;-71
2021/04/09 04:47:08;;;;;;;30.17;19.02;;;;;;;0.99;77.40;100278.68;1701139;84;21104;-73
2021/04/09 04:50:16;;;;;;;32.70;18.98;;;;;;;1.02;77.41;100279.56;1702591;84;21013;-73
2021/04/09 04:53:09;;;;;;;38.90;21.87;;;;;;;1.08;77.66;100278.59;1702506;84;21088;-70
2021/04/09 04:55:58;;;;;;;36.38;20.02;;;;;;;1.12;77.78;100282.50;1702692;84;21138;-74
2021/04/09 05:09:25;;;;;;;35.43;20.75;;;;;;;1.14;78.29;100287.69;1762605;81;21167;-72
2021/04/09 05:11:55;;;;;;;37.48;22.55;;;;;;;1.19;78.20;100303.58;1762800;81;20942;-73
2021/04/09 05:14:27;;;;;;;34.53;20.77;;;;;;;1.21;78.40;100300.62;1762787;80;21484;-73
2021/04/09 05:16:55;;;;;;;33.70;19.92;;;;;;;1.23;78.25;100301.18;1762629;81;21119;-72
2021/04/09 05:19:25;;;;;;;37.33;20.70;;;;;;;1.24;78.35;100304.20;1758910;80;21113;-72
2021/04/09 05:21:52;;;;;;;38.28;22.37;;;;;;;1.28;78.29;100316.78;1756072;81;20982;-71
2021/04/09 05:24:21;;;;;;;35.90;21.57;;;;;;;1.29;78.33;100312.47;1755401;81;21196;-73
2021/04/09 05:26:48;;;;;;;34.90;20.77;;;;;;;1.35;78.54;100317.46;1756016;81;21366;-71
2021/04/09 05:29:37;;;;;;;59.30;25.85;;;;;;;1.40;78.54;100313.50;1755942;81;21461;-73
2021/04/09 05:32:13;;;;;;;95.80;37.50;;;;;;;1.45;78.49;100322.31;1769465;80;21070;-72
2021/04/09 05:34:45;;;;;;;115.32;45.48;;;;;;;1.47;78.26;100318.80;1785487;80;21121;-73
2021/04/09 05:37:12;;;;;;;74.62;34.27;;;;;;;1.48;78.08;100323.19;1785540;80;21144;-72
2021/04/09 05:40:06;;;;;;;47.62;24.10;;;;;;;1.48;78.04;100327.26;1809743;79;21303;-75
2021/04/09 05:42:33;;;;;;;59.88;29.20;;;;;;;1.49;78.41;100330.25;1785368;80;20975;-73
2021/04/09 05:52:54;;;;;;;41.90;25.15;;;;;;;1.67;78.62;100336.05;1718870;83;20992;-73
2021/04/09 05:55:38;;;;;;;41.13;24.15;;;;;;;1.77;78.46;100334.09;1890122;76;22302;-72
2021/04/09 05:58:05;;;;;;;36.45;21.57;;;;;;;1.79;78.57;100340.65;1861063;77;20925;-75
2021/04/09 06:00:32;;;;;;;37.28;23.32;;;;;;;1.90;78.51;100345.73;1861067;77;22670;-72
2021/04/09 06:02:59;;;;;;;37.10;22.93;;;;;;;2.02;78.36;100344.34;1860998;77;21596;-73
2021/04/09 06:05:26;;;;;;;39.48;22.70;;;;;;;2.13;78.27;100346.17;1860937;77;20991;-72
2021/04/09 06:07:55;;;;;;;43.80;24.32;;;;;;;2.17;77.99;100355.51;1860887;77;20984;-73
2021/04/09 06:10:24;;;;;;;51.02;24.05;;;;;;;2.18;77.71;100351.70;1861037;77;20917;-73
2021/04/09 06:12:51;;;;;;;43.42;25.23;;;;;;;2.24;78.05;100359.44;1860944;77;22526;-72
2021/04/09 06:15:20;;;;;;;41.10;24.50;;;;;;;2.33;78.10;100359.88;1861009;77;21486;-72
2021/04/09 06:17:47;;;;;;;47.33;27.15;;;;;;;2.42;77.83;100360.31;1860973;77;20929;-73
2021/04/09 06:20:15;;;;;;;39.18;24.23;;;;;;;2.50;77.47;100353.63;1860975;77;21571;-72
2021/04/09 06:22:42;;;;;;;39.25;23.35;;;;;;;2.56;77.47;100352.64;1861115;77;20982;-73
2021/04/09 06:25:10;;;;;;;40.10;23.92;;;;;;;2.65;77.28;100353.91;1860903;77;21358;-74
2021/04/09 06:27:38;;;;;;;44.55;26.45;;;;;;;2.77;77.45;100354.35;1860898;77;21461;-73
2021/04/09 06:30:07;;;;;;;46.90;25.50;;;;;;;2.91;77.44;100358.94;1860948;77;20952;-74
2021/04/09 06:32:34;;;;;;;39.15;23.22;;;;;;;3.03;76.93;100362.93;1860879;77;21122;-73
2021/04/09 06:35:03;;;;;;;52.50;27.55;;;;;;;2.98;75.40;100365.58;1860923;77;21031;-75
2021/04/09 06:37:30;;;;;;;41.08;24.35;;;;;;;2.95;75.98;100366.88;1860965;77;21346;-74
2021/04/09 06:39:58;;;;;;;48.45;25.90;;;;;;;3.04;75.95;100367.30;1861151;77;20920;-72
2021/04/09 06:42:25;;;;;;;44.55;26.10;;;;;;;3.12;75.30;100372.87;1861357;77;21075;-74
2021/04/09 06:47:55;;;;;;;44.58;24.50;;;;;;;3.32;75.93;100365.54;1836491;77;21101;-73
2021/04/09 06:50:23;;;;;;;42.80;24.77;;;;;;;3.48;75.35;100373.94;1827353;78;22275;-73
2021/04/09 06:52:50;;;;;;;39.65;25.82;;;;;;;3.57;75.23;100380.59;1827352;78;21070;-74
2021/04/09 06:55:21;;;;;;;39.40;23.77;;;;;;;3.67;74.69;100380.45;1827158;77;21038;-72
2021/04/09 06:57:50;;;;;;;38.63;24.43;;;;;;;3.74;74.43;100383.27;1827270;78;20998;-75
2021/04/09 07:00:21;;;;;;;39.65;25.40;;;;;;;3.86;74.76;100382.30;1827521;78;21058;-74
2021/04/09 07:02:48;;;;;;;48.28;25.25;;;;;;;4.00;74.38;100384.12;1826520;78;22285;-74
2021/04/09 07:05:16;;;;;;;46.23;25.02;;;;;;;4.09;73.61;100386.69;1826942;78;21106;-74
2021/04/09 07:07:44;;;;;;;40.92;25.65;;;;;;;4.17;73.44;100381.31;1826731;78;20951;-72
2021/04/09 07:10:12;;;;;;;44.48;25.02;;;;;;;4.27;73.26;100388.78;1826530;78;21073;-73
2021/04/09 07:12:40;;;;;;;39.10;22.20;;;;;;;4.36;72.86;100385.89;1826645;78;20908;-74
2021/04/09 07:15:17;;;;;;;39.38;24.70;;;;;;;4.44;72.78;100391.41;1826731;78;21759;-74
2021/04/09 07:17:47;;;;;;;38.25;24.10;;;;;;;4.50;72.24;100389.57;1796952;78;21540;-74
2021/04/09 07:20:19;;;;;;;43.10;23.52;;;;;;;4.61;72.10;100387.75;1826663;78;21563;-75
2021/04/09 07:22:56;;;;;;;36.38;22.13;;;;;;;4.70;71.56;100386.73;1827125;78;21030;-74
2021/04/09 07:25:44;;;;;;;39.35;24.00;;;;;;;4.83;71.79;100390.94;1826949;78;20991;-74
2021/04/09 07:28:19;;;;;;;32.63;21.07;;;;;;;4.94;70.38;100383.13;1827084;78;21796;-73
2021/04/09 07:30:53;;;;;;;41.00;23.65;;;;;;;5.04;69.90;100388.38;1827772;78;21586;-75
2021/04/09 07:33:22;;;;;;;42.23;23.55;;;;;;;5.13;69.41;100388.72;1827184;78;20911;-74
2021/04/09 07:36:01;;;;;;;38.10;20.97;;;;;;;5.21;68.75;100393.16;1826576;78;20935;-72
2021/04/09 07:38:32;;;;;;;27.07;16.67;;;;;;;5.27;68.99;100390.46;1826557;78;20923;-73
2021/04/09 07:41:04;;;;;;;24.80;15.55;;;;;;;5.32;64.51;100389.13;1826683;78;21436;-74
2021/04/09 07:43:35;;;;;;;29.65;17.15;;;;;;;5.30;64.66;100397.59;1824200;78;21054;-72
2021/04/09 07:46:05;;;;;;;29.37;18.65;;;;;;;5.37;64.41;100396.00;1826630;78;21575;-74
2021/04/09 07:48:39;;;;;;;26.05;17.27;;;;;;;5.48;64.57;100400.97;1826571;78;21371;-75
2021/04/09 07:51:08;;;;;;;22.90;14.78;;;;;;;5.62;63.77;100397.23;1827033;78;21065;-74
2021/04/09 07:53:41;;;;;;;24.20;16.05;;;;;;;5.72;62.25;100400.02;1827028;78;21631;-75
2021/04/09 07:56:11;;;;;;;33.53;19.60;;;;;;;5.72;61.62;100397.82;1812704;78;20904;-76
2021/04/09 07:58:40;;;;;;;30.20;18.10;;;;;;;5.77;61.99;100393.75;1812158;79;20912;-73
2021/04/09 08:01:26;;;;;;;17.05;11.22;;;;;;;5.91;62.50;100399.56;1811971;79;21492;-73
2021/04/09 08:03:55;;;;;;;27.85;13.10;;;;;;;5.99;59.54;100398.20;1812213;79;21125;-74
2021/04/09 08:06:24;;;;;;;30.35;13.68;;;;;;;6.07;57.64;100399.66;1812443;79;22692;-74
2021/04/09 08:08:57;;;;;;;20.55;13.55;;;;;;;6.11;58.15;100395.84;1812232;79;20939;-73
2021/04/09 08:11:28;;;;;;;;;;;;;;;6.22;58.09;100400.25;1814848;79;21567;-72
2021/04/09 08:14:12;;;;;;;22.65;13.88;;;;;;;6.37;58.36;100392.62;1812091;79;20494;-77
2021/04/09 08:16:46;;;;;;;16.93;11.75;;;;;;;6.52;58.48;100391.82;1812118;79;20922;-75
2021/04/09 08:19:25;;;;;;;15.58;10.13;;;;;;;6.67;57.81;100392.95;1812240;79;22263;-74
2021/04/09 08:21:57;;;;;;;15.43;10.15;;;;;;;6.79;55.07;100395.42;1812028;79;21141;-78
2021/04/09 08:24:32;;;;;;;20.40;10.58;;;;;;;6.69;53.35;100391.57;1785828;79;20932;-75
2021/04/09 08:27:01;;;;;;;13.98;8.68;;;;;;;6.61;53.81;100394.02;1812511;79;20928;-74
2021/04/09 08:29:31;;;;;;;14.23;8.23;;;;;;;6.52;53.03;100399.20;1760656;79;21063;-72
2021/04/09 08:32:02;;;;;;;10.08;7.58;;;;;;;6.44;52.24;100393.19;1812266;79;21356;-74
2021/04/09 08:34:27;;;;;;;11.25;8.05;;;;;;;6.53;52.49;100396.22;1811962;79;20888;-75
2021/04/09 08:36:55;;;;;;;15.85;7.60;;;;;;;6.66;52.08;100391.29;1760031;79;21133;-76
2021/04/09 08:39:24;;;;;;;11.20;7.05;;;;;;;6.81;51.46;100392.67;1808693;79;20944;-76
2021/04/09 08:41:53;;;;;;;14.03;7.80;;;;;;;6.93;51.10;100394.31;1812031;79;21035;-75
2021/04/09 08:44:22;;;;;;;15.90;9.43;;;;;;;7.02;49.13;100395.42;1811952;79;20924;-75
2021/04/09 08:46:49;;;;;;;15.08;9.38;;;;;;;7.01;50.65;100388.28;1812407;79;21558;-72
2021/04/09 08:49:17;;;;;;;14.13;9.70;;;;;;;7.22;51.52;100391.55;1812031;79;20972;-73
2021/04/09 08:51:44;;;;;;;14.58;8.90;;;;;;;7.50;51.22;100390.16;1812233;79;21045;-76
2021/04/09 08:54:23;;;;;;;15.53;9.80;;;;;;;7.75;49.77;100393.08;1812865;77;21153;-76
2021/04/09 08:56:50;;;;;;;19.30;9.58;;;;;;;7.88;49.21;100402.66;1826798;78;21622;-74
2021/04/09 08:59:47;;;;;;;17.17;10.28;;;;;;;7.85;48.87;100394.42;1826827;78;20931;-73
2021/04/09 09:02:26;;;;;;;21.07;11.40;;;;;;;7.79;48.41;100391.43;1827129;78;20967;-75
2021/04/09 09:05:01;;;;;;;19.45;10.85;;;;;;;7.65;49.01;100393.94;1826880;78;21105;-74
2021/04/09 09:08:01;;;;;;;14.78;9.10;;;;;;;7.69;49.67;100395.58;1826881;78;21022;-75
2021/04/09 09:10:36;;;;;;;16.97;8.83;;;;;;;7.70;48.55;100399.95;1826855;78;21424;-73
2021/04/09 09:13:14;;;;;;;10.72;7.42;;;;;;;7.57;48.38;100399.45;1826300;78;21586;-71
2021/04/09 09:15:48;;;;;;;9.55;6.65;;;;;;;7.46;47.20;100407.41;1826665;78;20927;-75
2021/04/09 09:18:33;;;;;;;9.68;6.75;;;;;;;7.31;46.63;100406.36;1826708;78;20959;-73
2021/04/09 09:21:20;;;;;;;13.78;8.00;;;;;;;7.22;47.33;100408.83;1826614;78;21518;-73
2021/04/09 09:23:56;;;;;;;10.90;7.50;;;;;;;7.24;47.66;100401.70;1826526;78;21928;-76
2021/04/09 09:26:38;;;;;;;11.53;7.20;;;;;;;7.28;46.98;100405.54;1826599;78;21109;-74
2021/04/09 09:29:29;;;;;;;11.10;6.97;;;;;;;7.38;46.64;100399.22;1826692;78;21093;-74
2021/04/09 09:32:09;;;;;;;9.48;6.62;;;;;;;7.55;47.01;100401.11;1826595;78;20979;-74
2021/04/09 09:34:41;;;;;;;8.40;4.72;;;;;;;7.88;46.09;100401.28;1827027;78;21101;-74
2021/04/09 09:37:19;;;;;;;8.60;4.78;;;;;;;8.03;44.21;100404.52;1826988;78;21259;-74
2021/04/09 09:40:05;;;;;;;5.87;3.40;;;;;;;8.20;41.91;100401.41;1827013;78;21125;-74
2021/04/09 09:42:42;;;;;;;4.67;3.25;;;;;;;8.38;41.21;100406.80;1827283;78;20931;-77
2021/04/09 09:45:16;;;;;;;6.53;3.65;;;;;;;8.57;39.94;100405.34;1826717;78;20919;-73
2021/04/09 09:47:46;;;;;;;6.60;4.03;;;;;;;8.74;39.44;100409.06;1823415;78;21026;-75
2021/04/09 09:50:25;;;;;;;5.67;3.50;;;;;;;8.69;37.95;100404.98;1826559;78;21817;-74
2021/04/09 09:53:04;;;;;;;7.40;3.72;;;;;;;8.62;38.65;100409.42;1826979;78;20916;-75
2021/04/09 09:55:45;;;;;;;23.35;8.38;;;;;;;8.59;39.13;100409.45;1820035;77;21894;-74
2021/04/09 09:58:22;;;;;;;57.55;10.30;;;;;;;8.49;42.55;100410.86;1812095;79;20924;-75
2021/04/09 10:01:04;;;;;;;14.35;8.33;;;;;;;8.39;43.73;100406.25;1812323;79;20928;-75
2021/04/09 10:03:37;;;;;;;11.53;7.58;;;;;;;8.31;44.46;100410.98;1812099;79;21475;-76
2021/04/09 10:06:14;;;;;;;11.25;7.70;;;;;;;8.16;45.01;100410.77;1812444;79;20976;-75
2021/04/09 10:08:44;;;;;;;33.15;8.58;;;;;;;8.06;44.96;100407.23;1808018;79;21122;-76
2021/04/09 10:11:17;;;;;;;9.90;6.87;;;;;;;7.93;45.47;100406.75;1812290;79;21042;-77
2021/04/09 10:13:46;;;;;;;13.95;8.95;;;;;;;7.89;45.25;100405.66;1812441;79;21114;-76
2021/04/09 10:16:19;;;;;;;13.25;6.95;;;;;;;7.92;45.46;100400.98;1811900;79;21129;-76
2021/04/09 10:18:58;;;;;;;17.98;8.83;;;;;;;8.07;45.86;100410.27;1812056;79;20979;-73
2021/04/09 10:21:30;;;;;;;10.55;6.97;;;;;;;8.22;45.51;100408.80;1812036;79;20975;-74
2021/04/09 10:24:15;;;;;;;15.35;7.60;;;;;;;8.40;44.79;100409.26;1811940;79;20932;-73
2021/04/09 10:26:58;;;;;;;8.30;5.62;;;;;;;8.56;44.64;100401.79;1812474;79;21046;-73
2021/04/09 10:29:37;;;;;;;7.15;4.33;;;;;;;8.80;41.72;100409.31;1812420;79;21539;-73
2021/04/09 10:32:15;;;;;;;6.12;3.92;;;;;;;8.86;41.22;100408.16;1812158;79;21098;-73
2021/04/09 10:34:47;;;;;;;6.22;3.77;;;;;;;8.97;40.58;100402.02;1812112;79;21043;-76
2021/04/09 10:37:24;;;;;;;7.78;4.10;;;;;;;9.15;40.70;100405.17;1786949;79;21047;-75
2021/04/09 10:39:53;;;;;;;8.13;4.87;;;;;;;9.28;38.53;100404.24;1812543;79;20908;-74
2021/04/09 10:42:20;;;;;;;7.67;4.83;;;;;;;9.28;38.05;100397.37;1812715;79;21689;-73
2021/04/09 10:44:47;;;;;;;7.67;4.53;;;;;;;9.28;39.07;100395.42;1812781;79;21114;-74
2021/04/09 10:47:14;;;;;;;11.18;5.62;;;;;;;9.33;40.14;100391.24;1812151;79;20983;-76
2021/04/09 10:49:44;;;;;;;15.43;5.67;;;;;;;9.39;39.50;100394.77;1812300;79;21671;-77
2021/04/09 10:52:15;;;;;;;10.90;6.85;;;;;;;9.34;38.85;100392.07;1812292;79;21054;-75
2021/04/09 10:54:45;;;;;;;7.85;5.15;;;;;;;9.32;39.58;100386.86;1812109;79;21149;-75
2021/04/09 10:57:18;;;;;;;9.35;5.45;;;;;;;9.40;39.84;100391.47;1832742;78;21144;-76
2021/04/09 10:59:52;;;;;;;12.70;7.15;;;;;;;9.52;39.88;100381.45;1833092;78;21542;-77
2021/04/09 11:02:25;;;;;;;16.02;7.85;;;;;;;9.67;40.01;100384.00;1805633;78;24116;-74
2021/04/09 11:04:56;;;;;;;20.80;6.75;;;;;;;9.84;40.70;100388.23;1832848;78;21133;-75
2021/04/09 11:07:44;;;;;;;11.38;5.70;;;;;;;9.96;39.90;100383.69;1832813;78;21006;-75
2021/04/09 11:10:31;;;;;;;10.25;5.47;;;;;;;9.94;39.12;100382.61;1828831;78;21622;-77
2021/04/09 11:12:58;;;;;;;8.10;5.58;;;;;;;9.80;38.00;100394.88;1833052;78;21120;-74
2021/04/09 11:15:41;;;;;;;13.13;6.35;;;;;;;9.61;37.82;100385.19;1833207;78;21144;-75
2021/04/09 11:18:09;;;;;;;8.13;5.03;;;;;;;9.51;37.56;100391.62;1832882;78;20911;-74
2021/04/09 11:20:45;;;;;;;7.97;5.22;;;;;;;9.31;38.17;100391.28;1833285;78;21149;-76
2021/04/09 11:23:15;;;;;;;9.15;5.40;;;;;;;9.25;38.26;100391.33;1833271;78;21049;-74
2021/04/09 11:25:46;;;;;;;8.10;5.50;;;;;;;9.18;38.83;100391.41;1833275;78;21195;-74
2021/04/09 11:28:29;;;;;;;12.23;5.33;;;;;;;9.00;38.21;100390.47;1832959;78;21153;-73
2021/04/09 11:30:58;;;;;;;9.05;5.25;;;;;;;8.82;38.48;100387.05;1832864;78;21089;-74
2021/04/09 11:33:39;;;;;;;7.70;5.33;;;;;;;8.64;39.50;100395.69;1832824;78;22283;-74
2021/04/09 11:36:16;;;;;;;17.25;6.87;;;;;;;8.61;39.64;100388.02;1832915;78;20998;-74
2021/04/09 11:38:46;;;;;;;7.55;5.20;;;;;;;8.61;39.70;100388.56;1832691;78;20990;-76
2021/04/09 11:41:33;;;;;;;10.18;4.67;;;;;;;8.49;39.08;100386.14;1833428;78;21124;-74
2021/04/09 11:44:01;;;;;;;6.42;4.30;;;;;;;8.38;39.46;100382.63;1833211;78;21034;-74
2021/04/09 11:46:37;;;;;;;7.78;5.17;;;;;;;8.42;40.74;100383.71;1805554;78;21793;-76
2021/04/09 11:49:06;;;;;;;6.58;4.65;;;;;;;8.52;40.69;100385.02;1832623;78;20974;-74
2021/04/09 11:51:35;;;;;;;11.60;5.28;;;;;;;8.59;40.36;100375.66;1833147;78;21149;-76
2021/04/09 11:54:10;;;;;;;10.45;6.15;;;;;;;8.65;39.91;100380.00;1833096;78;21030;-76
2021/04/09 11:56:46;;;;;;;8.25;4.83;;;;;;;8.68;39.90;100370.38;1823563;77;21082;-75
2021/04/09 11:59:16;;;;;;;9.93;5.37;;;;;;;8.74;39.62;100371.43;1818434;79;21440;-76
2021/04/09 12:01:45;;;;;;;8.43;4.35;;;;;;;8.80;39.23;100369.47;1818777;78;21141;-76
2021/04/09 12:04:35;;;;;;;8.28;4.92;;;;;;;8.98;38.76;100367.11;1818933;79;21025;-75
2021/04/09 12:07:12;;;;;;;9.83;5.45;;;;;;;9.20;38.45;100366.63;1820321;78;21160;-74
2021/04/09 12:09:43;;;;;;;7.30;4.60;;;;;;;9.41;38.05;100361.47;1819861;78;21050;-74
2021/04/09 12:12:14;;;;;;;7.10;4.65;;;;;;;9.52;37.44;100354.73;1818936;79;21183;-75
2021/04/09 12:14:52;;;;;;;10.08;4.85;;;;;;;9.65;37.63;100358.73;1818575;79;21539;-75
2021/04/09 12:17:22;;;;;;;7.15;4.40;;;;;;;9.84;36.94;100356.59;1814616;79;20931;-75
2021/04/09 12:19:51;;;;;;;7.00;4.05;;;;;;;9.95;36.68;100355.87;1818851;79;20951;-76
2021/04/09 12:22:20;;;;;;;8.60;4.10;;;;;;;9.90;36.48;100354.02;1818789;78;21035;-76
2021/04/09 12:24:48;;;;;;;7.20;4.25;;;;;;;9.88;36.14;100349.36;1818379;79;21374;-75
2021/04/09 12:27:17;;;;;;;12.55;4.00;;;;;;;9.81;35.90;100348.92;1818461;79;20999;-74
2021/04/09 12:29:46;;;;;;;5.95;4.17;;;;;;;9.62;36.52;100355.20;1818402;79;21129;-72
2021/04/09 12:32:13;;;;;;;7.72;4.28;;;;;;;9.50;35.54;100351.48;1818346;79;21133;-75
2021/04/09 12:34:41;;;;;;;5.95;3.33;;;;;;;9.34;36.34;100347.52;1818767;79;21496;-73
2021/04/09 12:37:09;;;;;;;9.53;3.87;;;;;;;9.30;36.35;100350.58;1818793;79;21358;-78
2021/04/09 12:39:36;;;;;;;8.00;4.00;;;;;;;9.21;37.66;100353.13;1818432;79;21114;-75
2021/04/09 12:42:05;;;;;;;6.65;4.10;;;;;;;9.22;37.58;100355.34;1818440;78;21591;-75
2021/04/09 12:44:32;;;;;;;5.90;3.75;;;;;;;9.21;36.96;100353.13;1818124;79;20912;-75
2021/04/09 12:46:59;;;;;;;7.10;4.22;;;;;;;9.21;37.32;100357.26;1818785;78;21062;-79
2021/04/09 12:49:29;;;;;;;12.35;5.47;;;;;;;9.27;37.51;100355.29;1818420;78;22362;-75